sensor_id;sensor_type;location;lat;lon;timestamp;temperature;humidity
74901;DHT22;63461;51.416;6.758;2023-09-18T00:01:57;19.80;99.90
74901;DHT22;63461;51.416;6.758;2023-09-18T00:04:23;19.80;99.90
74901;DHT22;63461;51.416;6.758;2023-09-18T00:06:49;19.80;99.90
74901;DHT22;63461;51.416;6.758;2023-09-18T00:09:15;19.80;99.90
74901;DHT22;63461;51.416;6.758;2023-09-18T00:11:41;19.80;99.90
74901;DHT22;63461;51.416;6.758;2023-09-18T00:14:08;19.80;99.90
74901;DHT22;63461;51.416;6.758;2023-09-18T00:16:35;19.80;99.90
74901;DHT22;63461;51.416;6.758;2023-09-18T00:19:01;19.80;99.90
74901;DHT22;63461;51.416;6.758;2023-09-18T00:21:28;19.80;99.90
74901;DHT22;63461;51.416;6.758;2023-09-18T00:23:56;19.80;99.90
74901;DHT22;63461;51.416;6.758;2023-09-18T00:26:24;19.80;99.90
74901;DHT22;63461;51.416;6.758;2023-09-18T00:28:52;19.80;99.90
74901;DHT22;63461;51.416;6.758;2023-09-18T00:31:19;19.70;99.90
74901;DHT22;63461;51.416;6.758;2023-09-18T00:33:45;19.70;99.90
74901;DHT22;63461;51.416;6.758;2023-09-18T00:36:11;19.70;99.90
74901;DHT22;63461;51.416;6.758;2023-09-18T00:38:36;19.70;99.90
74901;DHT22;63461;51.416;6.758;2023-09-18T00:41:02;19.70;99.90
74901;DHT22;63461;51.416;6.758;2023-09-18T00:43:28;19.70;99.90
74901;DHT22;63461;51.416;6.758;2023-09-18T00:45:54;19.70;99.90
74901;DHT22;63461;51.416;6.758;2023-09-18T00:48:21;19.80;99.90
74901;DHT22;63461;51.416;6.758;2023-09-18T00:50:48;19.80;99.90
74901;DHT22;63461;51.416;6.758;2023-09-18T00:53:18;19.70;99.90
74901;DHT22;63461;51.416;6.758;2023-09-18T00:55:45;19.70;99.90
74901;DHT22;63461;51.416;6.758;2023-09-18T00:58:11;19.70;99.90
74901;DHT22;63461;51.416;6.758;2023-09-18T01:00:37;19.70;99.90
74901;DHT22;63461;51.416;6.758;2023-09-18T01:03:04;19.70;99.90
74901;DHT22;63461;51.416;6.758;2023-09-18T01:05:34;19.70;99.90
74901;DHT22;63461;51.416;6.758;2023-09-18T01:08:01;19.70;99.90
74901;DHT22;63461;51.416;6.758;2023-09-18T01:10:39;19.60;99.90
74901;DHT22;63461;51.416;6.758;2023-09-18T01:13:10;19.60;99.90
74901;DHT22;63461;51.416;6.758;2023-09-18T01:15:51;19.60;99.90
74901;DHT22;63461;51.416;6.758;2023-09-18T01:18:19;19.60;99.90
74901;DHT22;63461;51.416;6.758;2023-09-18T01:20:45;19.60;99.90
74901;DHT22;63461;51.416;6.758;2023-09-18T01:23:11;19.60;99.90
74901;DHT22;63461;51.416;6.758;2023-09-18T01:25:40;19.60;99.90
74901;DHT22;63461;51.416;6.758;2023-09-18T01:28:06;19.50;99.90
74901;DHT22;63461;51.416;6.758;2023-09-18T01:30:32;19.50;99.90
74901;DHT22;63461;51.416;6.758;2023-09-18T01:33:01;19.50;99.90
74901;DHT22;63461;51.416;6.758;2023-09-18T01:35:28;19.50;99.90
74901;DHT22;63461;51.416;6.758;2023-09-18T01:37:59;19.50;99.90
74901;DHT22;63461;51.416;6.758;2023-09-18T01:40:26;19.50;99.90
74901;DHT22;63461;51.416;6.758;2023-09-18T01:42:53;19.50;99.90
74901;DHT22;63461;51.416;6.758;2023-09-18T01:45:19;19.50;99.90
74901;DHT22;63461;51.416;6.758;2023-09-18T01:47:46;19.50;99.90
74901;DHT22;63461;51.416;6.758;2023-09-18T01:50:11;19.50;99.90
74901;DHT22;63461;51.416;6.758;2023-09-18T01:52:38;19.50;99.90
74901;DHT22;63461;51.416;6.758;2023-09-18T01:55:04;19.50;99.90
74901;DHT22;63461;51.416;6.758;2023-09-18T01:57:30;19.50;99.90
74901;DHT22;63461;51.416;6.758;2023-09-18T01:59:56;19.50;99.90
74901;DHT22;63461;51.416;6.758;2023-09-18T02:02:22;19.50;99.90
74901;DHT22;63461;51.416;6.758;2023-09-18T02:04:49;19.50;99.90
74901;DHT22;63461;51.416;6.758;2023-09-18T02:07:15;19.50;99.90
74901;DHT22;63461;51.416;6.758;2023-09-18T02:09:41;19.50;99.90
74901;DHT22;63461;51.416;6.758;2023-09-18T02:12:07;19.50;99.90
74901;DHT22;63461;51.416;6.758;2023-09-18T02:14:33;19.50;99.90
74901;DHT22;63461;51.416;6.758;2023-09-18T02:17:00;19.50;99.90
74901;DHT22;63461;51.416;6.758;2023-09-18T02:19:26;19.50;99.90
74901;DHT22;63461;51.416;6.758;2023-09-18T02:21:52;19.50;99.90
74901;DHT22;63461;51.416;6.758;2023-09-18T02:24:18;19.50;99.90
74901;DHT22;63461;51.416;6.758;2023-09-18T02:26:44;19.50;99.90
74901;DHT22;63461;51.416;6.758;2023-09-18T02:29:10;19.60;99.90
74901;DHT22;63461;51.416;6.758;2023-09-18T02:31:38;19.60;99.90
74901;DHT22;63461;51.416;6.758;2023-09-18T02:34:04;19.60;99.90
74901;DHT22;63461;51.416;6.758;2023-09-18T02:36:30;19.60;99.90
74901;DHT22;63461;51.416;6.758;2023-09-18T02:38:56;19.50;99.90
74901;DHT22;63461;51.416;6.758;2023-09-18T02:41:22;19.50;99.90
74901;DHT22;63461;51.416;6.758;2023-09-18T02:43:48;19.50;99.90
74901;DHT22;63461;51.416;6.758;2023-09-18T02:46:14;19.50;99.90
74901;DHT22;63461;51.416;6.758;2023-09-18T02:48:39;19.50;99.90
74901;DHT22;63461;51.416;6.758;2023-09-18T02:51:06;19.50;99.90
74901;DHT22;63461;51.416;6.758;2023-09-18T02:53:32;19.50;99.90
74901;DHT22;63461;51.416;6.758;2023-09-18T02:55:59;19.40;99.90
74901;DHT22;63461;51.416;6.758;2023-09-18T02:58:25;19.50;99.90
74901;DHT22;63461;51.416;6.758;2023-09-18T03:00:53;19.50;99.90
74901;DHT22;63461;51.416;6.758;2023-09-18T03:03:21;19.50;99.90
74901;DHT22;63461;51.416;6.758;2023-09-18T03:05:47;19.60;99.90
74901;DHT22;63461;51.416;6.758;2023-09-18T03:08:14;19.60;99.90
74901;DHT22;63461;51.416;6.758;2023-09-18T03:10:41;19.70;99.90
74901;DHT22;63461;51.416;6.758;2023-09-18T03:13:08;19.70;99.90
74901;DHT22;63461;51.416;6.758;2023-09-18T03:15:35;19.70;99.90
74901;DHT22;63461;51.416;6.758;2023-09-18T03:18:03;19.80;99.90
74901;DHT22;63461;51.416;6.758;2023-09-18T03:20:30;19.90;99.90
74901;DHT22;63461;51.416;6.758;2023-09-18T03:23:01;20.00;99.90
74901;DHT22;63461;51.416;6.758;2023-09-18T03:25:28;20.00;99.90
74901;DHT22;63461;51.416;6.758;2023-09-18T03:27:56;20.00;99.90
74901;DHT22;63461;51.416;6.758;2023-09-18T03:30:25;20.00;99.90
74901;DHT22;63461;51.416;6.758;2023-09-18T03:32:52;20.00;99.90
74901;DHT22;63461;51.416;6.758;2023-09-18T03:35:19;20.00;99.90
74901;DHT22;63461;51.416;6.758;2023-09-18T03:37:52;20.00;99.90
74901;DHT22;63461;51.416;6.758;2023-09-18T03:40:20;20.10;99.90
74901;DHT22;63461;51.416;6.758;2023-09-18T03:42:47;20.10;99.90
74901;DHT22;63461;51.416;6.758;2023-09-18T03:45:13;20.10;99.90
74901;DHT22;63461;51.416;6.758;2023-09-18T03:47:40;20.10;99.90
74901;DHT22;63461;51.416;6.758;2023-09-18T03:50:07;20.10;99.90
74901;DHT22;63461;51.416;6.758;2023-09-18T03:52:33;20.10;99.90
74901;DHT22;63461;51.416;6.758;2023-09-18T03:54:59;20.10;99.90
74901;DHT22;63461;51.416;6.758;2023-09-18T03:57:25;20.10;99.90
74901;DHT22;63461;51.416;6.758;2023-09-18T03:59:51;20.10;99.90
74901;DHT22;63461;51.416;6.758;2023-09-18T04:02:16;20.10;99.90
74901;DHT22;63461;51.416;6.758;2023-09-18T04:04:42;20.10;99.90
74901;DHT22;63461;51.416;6.758;2023-09-18T04:07:09;20.00;99.90
74901;DHT22;63461;51.416;6.758;2023-09-18T04:09:35;20.00;99.90
74901;DHT22;63461;51.416;6.758;2023-09-18T04:12:02;20.00;99.90
74901;DHT22;63461;51.416;6.758;2023-09-18T04:14:28;20.40;99.90
74901;DHT22;63461;51.416;6.758;2023-09-18T04:16:54;20.40;99.90
74901;DHT22;63461;51.416;6.758;2023-09-18T04:19:20;20.50;99.90
74901;DHT22;63461;51.416;6.758;2023-09-18T04:21:45;20.40;99.90
74901;DHT22;63461;51.416;6.758;2023-09-18T04:24:12;20.40;99.90
74901;DHT22;63461;51.416;6.758;2023-09-18T04:26:37;20.50;99.90
74901;DHT22;63461;51.416;6.758;2023-09-18T04:29:05;20.50;99.90
74901;DHT22;63461;51.416;6.758;2023-09-18T04:31:31;20.50;99.90
74901;DHT22;63461;51.416;6.758;2023-09-18T04:33:58;20.50;99.90
74901;DHT22;63461;51.416;6.758;2023-09-18T04:36:27;20.60;99.90
74901;DHT22;63461;51.416;6.758;2023-09-18T04:38:52;20.60;99.90
74901;DHT22;63461;51.416;6.758;2023-09-18T04:41:19;20.60;99.90
74901;DHT22;63461;51.416;6.758;2023-09-18T04:43:46;20.50;99.90
74901;DHT22;63461;51.416;6.758;2023-09-18T04:46:12;20.50;99.90
74901;DHT22;63461;51.416;6.758;2023-09-18T04:48:38;20.30;99.90
74901;DHT22;63461;51.416;6.758;2023-09-18T04:51:05;20.20;99.90
74901;DHT22;63461;51.416;6.758;2023-09-18T04:53:32;20.20;99.90
74901;DHT22;63461;51.416;6.758;2023-09-18T04:55:58;20.20;99.90
74901;DHT22;63461;51.416;6.758;2023-09-18T04:58:25;20.20;99.90
74901;DHT22;63461;51.416;6.758;2023-09-18T05:00:58;20.20;99.90
74901;DHT22;63461;51.416;6.758;2023-09-18T05:03:25;20.20;99.90
74901;DHT22;63461;51.416;6.758;2023-09-18T05:05:53;20.20;99.90
74901;DHT22;63461;51.416;6.758;2023-09-18T05:08:18;20.20;99.90
74901;DHT22;63461;51.416;6.758;2023-09-18T05:10:45;20.20;99.90
74901;DHT22;63461;51.416;6.758;2023-09-18T05:13:12;20.20;99.90
74901;DHT22;63461;51.416;6.758;2023-09-18T05:15:38;20.20;99.90
74901;DHT22;63461;51.416;6.758;2023-09-18T05:18:04;20.10;99.90
74901;DHT22;63461;51.416;6.758;2023-09-18T05:20:30;20.10;99.90
74901;DHT22;63461;51.416;6.758;2023-09-18T05:22:58;20.10;99.90
74901;DHT22;63461;51.416;6.758;2023-09-18T05:25:26;20.00;99.90
74901;DHT22;63461;51.416;6.758;2023-09-18T05:27:53;20.00;99.90
74901;DHT22;63461;51.416;6.758;2023-09-18T05:30:29;20.00;99.90
74901;DHT22;63461;51.416;6.758;2023-09-18T05:32:57;20.10;99.90
74901;DHT22;63461;51.416;6.758;2023-09-18T05:35:22;20.10;99.90
74901;DHT22;63461;51.416;6.758;2023-09-18T05:37:49;20.10;99.90
74901;DHT22;63461;51.416;6.758;2023-09-18T05:40:20;20.10;99.90
74901;DHT22;63461;51.416;6.758;2023-09-18T05:42:46;20.10;99.90
74901;DHT22;63461;51.416;6.758;2023-09-18T05:45:13;20.10;99.90
74901;DHT22;63461;51.416;6.758;2023-09-18T05:47:40;20.00;99.90
74901;DHT22;63461;51.416;6.758;2023-09-18T05:50:12;20.00;99.90
74901;DHT22;63461;51.416;6.758;2023-09-18T05:52:41;20.00;99.90
74901;DHT22;63461;51.416;6.758;2023-09-18T05:55:07;20.00;99.90
74901;DHT22;63461;51.416;6.758;2023-09-18T05:57:34;20.00;99.90
74901;DHT22;63461;51.416;6.758;2023-09-18T06:00:00;20.10;99.90
74901;DHT22;63461;51.416;6.758;2023-09-18T06:02:26;20.10;99.90
74901;DHT22;63461;51.416;6.758;2023-09-18T06:04:56;20.10;99.90
74901;DHT22;63461;51.416;6.758;2023-09-18T06:07:25;20.10;99.90
74901;DHT22;63461;51.416;6.758;2023-09-18T06:09:51;20.10;99.90
74901;DHT22;63461;51.416;6.758;2023-09-18T06:12:17;20.10;99.90
74901;DHT22;63461;51.416;6.758;2023-09-18T06:14:43;20.10;99.90
74901;DHT22;63461;51.416;6.758;2023-09-18T06:17:09;20.10;99.90
74901;DHT22;63461;51.416;6.758;2023-09-18T06:19:35;20.20;99.90
74901;DHT22;63461;51.416;6.758;2023-09-18T06:22:01;20.20;99.90
74901;DHT22;63461;51.416;6.758;2023-09-18T06:24:27;20.20;99.90
74901;DHT22;63461;51.416;6.758;2023-09-18T06:26:54;20.20;99.90
74901;DHT22;63461;51.416;6.758;2023-09-18T06:29:20;20.20;99.90
74901;DHT22;63461;51.416;6.758;2023-09-18T06:31:46;20.20;99.90
74901;DHT22;63461;51.416;6.758;2023-09-18T06:34:12;20.20;99.90
74901;DHT22;63461;51.416;6.758;2023-09-18T06:36:38;20.30;99.90
74901;DHT22;63461;51.416;6.758;2023-09-18T06:39:04;20.30;99.90
74901;DHT22;63461;51.416;6.758;2023-09-18T06:41:32;20.30;99.90
74901;DHT22;63461;51.416;6.758;2023-09-18T06:43:59;20.30;99.90
74901;DHT22;63461;51.416;6.758;2023-09-18T06:46:28;20.30;99.90
74901;DHT22;63461;51.416;6.758;2023-09-18T06:48:54;20.40;99.90
74901;DHT22;63461;51.416;6.758;2023-09-18T06:51:22;20.40;99.90
74901;DHT22;63461;51.416;6.758;2023-09-18T06:53:48;20.50;99.90
74901;DHT22;63461;51.416;6.758;2023-09-18T06:56:14;20.50;99.90
74901;DHT22;63461;51.416;6.758;2023-09-18T06:58:40;20.50;99.90
74901;DHT22;63461;51.416;6.758;2023-09-18T07:01:06;20.50;99.90
74901;DHT22;63461;51.416;6.758;2023-09-18T07:03:33;20.60;99.90
74901;DHT22;63461;51.416;6.758;2023-09-18T07:06:01;20.60;99.90
74901;DHT22;63461;51.416;6.758;2023-09-18T07:08:26;20.70;99.90
74901;DHT22;63461;51.416;6.758;2023-09-18T07:10:54;20.70;99.90
74901;DHT22;63461;51.416;6.758;2023-09-18T07:13:20;20.70;99.90
74901;DHT22;63461;51.416;6.758;2023-09-18T07:15:46;20.70;99.90
74901;DHT22;63461;51.416;6.758;2023-09-18T07:18:13;20.70;99.90
74901;DHT22;63461;51.416;6.758;2023-09-18T07:20:46;20.70;99.90
74901;DHT22;63461;51.416;6.758;2023-09-18T07:23:13;20.80;99.90
74901;DHT22;63461;51.416;6.758;2023-09-18T07:25:40;20.80;99.90
74901;DHT22;63461;51.416;6.758;2023-09-18T07:28:09;20.80;99.90
74901;DHT22;63461;51.416;6.758;2023-09-18T07:30:38;20.80;99.90
74901;DHT22;63461;51.416;6.758;2023-09-18T07:33:04;20.80;99.90
74901;DHT22;63461;51.416;6.758;2023-09-18T07:35:30;20.80;99.90
74901;DHT22;63461;51.416;6.758;2023-09-18T07:37:56;20.90;99.90
74901;DHT22;63461;51.416;6.758;2023-09-18T07:40:23;20.90;99.90
74901;DHT22;63461;51.416;6.758;2023-09-18T07:42:48;20.90;99.90
74901;DHT22;63461;51.416;6.758;2023-09-18T07:45:14;20.90;99.90
74901;DHT22;63461;51.416;6.758;2023-09-18T07:47:40;20.90;99.90
74901;DHT22;63461;51.416;6.758;2023-09-18T07:50:06;20.90;99.90
74901;DHT22;63461;51.416;6.758;2023-09-18T07:52:32;20.90;99.90
74901;DHT22;63461;51.416;6.758;2023-09-18T07:54:58;20.90;99.90
74901;DHT22;63461;51.416;6.758;2023-09-18T07:57:25;21.00;99.90
74901;DHT22;63461;51.416;6.758;2023-09-18T07:59:51;21.00;99.90
74901;DHT22;63461;51.416;6.758;2023-09-18T08:02:17;21.10;99.90
74901;DHT22;63461;51.416;6.758;2023-09-18T08:04:47;21.00;99.90
74901;DHT22;63461;51.416;6.758;2023-09-18T08:07:14;21.10;99.90
74901;DHT22;63461;51.416;6.758;2023-09-18T08:09:40;21.10;99.90
74901;DHT22;63461;51.416;6.758;2023-09-18T08:12:09;21.10;99.90
74901;DHT22;63461;51.416;6.758;2023-09-18T08:14:35;21.20;99.90
74901;DHT22;63461;51.416;6.758;2023-09-18T08:17:02;21.20;99.90
74901;DHT22;63461;51.416;6.758;2023-09-18T08:19:30;21.30;99.90
74901;DHT22;63461;51.416;6.758;2023-09-18T08:21:59;21.20;99.90
74901;DHT22;63461;51.416;6.758;2023-09-18T08:24:29;21.30;99.90
74901;DHT22;63461;51.416;6.758;2023-09-18T08:26:58;21.30;99.90
74901;DHT22;63461;51.416;6.758;2023-09-18T08:29:23;21.50;99.90
74901;DHT22;63461;51.416;6.758;2023-09-18T08:31:49;21.70;99.90
74901;DHT22;63461;51.416;6.758;2023-09-18T08:34:18;21.80;99.90
74901;DHT22;63461;51.416;6.758;2023-09-18T08:36:43;21.70;99.90
74901;DHT22;63461;51.416;6.758;2023-09-18T08:39:09;21.60;99.90
74901;DHT22;63461;51.416;6.758;2023-09-18T08:41:38;21.50;99.90
74901;DHT22;63461;51.416;6.758;2023-09-18T08:44:08;21.80;99.90
74901;DHT22;63461;51.416;6.758;2023-09-18T08:46:35;21.90;99.90
74901;DHT22;63461;51.416;6.758;2023-09-18T08:49:01;21.60;99.90
74901;DHT22;63461;51.416;6.758;2023-09-18T08:51:28;21.50;99.90
74901;DHT22;63461;51.416;6.758;2023-09-18T08:53:56;21.50;99.90
74901;DHT22;63461;51.416;6.758;2023-09-18T08:56:22;21.80;99.90
74901;DHT22;63461;51.416;6.758;2023-09-18T08:58:49;21.90;99.90
74901;DHT22;63461;51.416;6.758;2023-09-18T09:01:25;21.90;99.90
74901;DHT22;63461;51.416;6.758;2023-09-18T09:03:51;22.00;99.90
74901;DHT22;63461;51.416;6.758;2023-09-18T09:06:17;22.00;99.90
74901;DHT22;63461;51.416;6.758;2023-09-18T09:08:43;22.00;99.90
74901;DHT22;63461;51.416;6.758;2023-09-18T09:11:09;21.90;99.90
74901;DHT22;63461;51.416;6.758;2023-09-18T09:13:34;21.90;99.90
74901;DHT22;63461;51.416;6.758;2023-09-18T09:16:00;22.10;99.90
74901;DHT22;63461;51.416;6.758;2023-09-18T09:18:28;22.10;99.90
74901;DHT22;63461;51.416;6.758;2023-09-18T09:21:02;22.10;99.90
74901;DHT22;63461;51.416;6.758;2023-09-18T09:23:48;22.20;99.90
74901;DHT22;63461;51.416;6.758;2023-09-18T09:26:21;22.30;99.90
74901;DHT22;63461;51.416;6.758;2023-09-18T09:29:19;22.40;99.90
74901;DHT22;63461;51.416;6.758;2023-09-18T09:31:46;22.40;99.90
74901;DHT22;63461;51.416;6.758;2023-09-18T09:34:24;22.30;99.90
74901;DHT22;63461;51.416;6.758;2023-09-18T09:36:55;22.30;99.90
74901;DHT22;63461;51.416;6.758;2023-09-18T09:39:21;22.20;99.90
74901;DHT22;63461;51.416;6.758;2023-09-18T09:41:53;22.30;99.90
74901;DHT22;63461;51.416;6.758;2023-09-18T09:44:20;22.30;99.90
74901;DHT22;63461;51.416;6.758;2023-09-18T09:46:50;22.40;99.90
74901;DHT22;63461;51.416;6.758;2023-09-18T09:49:17;22.40;99.90
74901;DHT22;63461;51.416;6.758;2023-09-18T09:51:45;22.40;99.90
74901;DHT22;63461;51.416;6.758;2023-09-18T09:54:11;22.30;99.90
74901;DHT22;63461;51.416;6.758;2023-09-18T09:57:02;22.30;99.90
74901;DHT22;63461;51.416;6.758;2023-09-18T09:59:31;22.30;99.90
74901;DHT22;63461;51.416;6.758;2023-09-18T10:02:03;22.20;99.90
74901;DHT22;63461;51.416;6.758;2023-09-18T10:04:32;22.20;99.90
74901;DHT22;63461;51.416;6.758;2023-09-18T10:07:08;22.30;99.90
74901;DHT22;63461;51.416;6.758;2023-09-18T10:09:42;22.30;99.90
74901;DHT22;63461;51.416;6.758;2023-09-18T10:12:17;22.20;99.90
74901;DHT22;63461;51.416;6.758;2023-09-18T10:14:54;22.20;99.90
74901;DHT22;63461;51.416;6.758;2023-09-18T10:17:21;22.20;99.90
74901;DHT22;63461;51.416;6.758;2023-09-18T10:22:45;22.20;99.90
74901;DHT22;63461;51.416;6.758;2023-09-18T10:25:20;22.20;99.90
74901;DHT22;63461;51.416;6.758;2023-09-18T10:27:49;22.30;99.90
74901;DHT22;63461;51.416;6.758;2023-09-18T10:30:19;22.30;99.90
74901;DHT22;63461;51.416;6.758;2023-09-18T10:32:46;22.30;99.90
74901;DHT22;63461;51.416;6.758;2023-09-18T10:35:14;22.30;99.90
74901;DHT22;63461;51.416;6.758;2023-09-18T10:37:42;22.30;99.90
74901;DHT22;63461;51.416;6.758;2023-09-18T10:40:09;22.30;99.90
74901;DHT22;63461;51.416;6.758;2023-09-18T10:42:38;22.20;99.90
74901;DHT22;63461;51.416;6.758;2023-09-18T10:45:05;22.30;99.90
74901;DHT22;63461;51.416;6.758;2023-09-18T10:47:32;22.40;99.90
74901;DHT22;63461;51.416;6.758;2023-09-18T10:50:00;22.50;99.90
74901;DHT22;63461;51.416;6.758;2023-09-18T10:52:26;22.50;99.90
74901;DHT22;63461;51.416;6.758;2023-09-18T10:54:52;22.50;99.90
74901;DHT22;63461;51.416;6.758;2023-09-18T10:57:18;22.60;99.90
74901;DHT22;63461;51.416;6.758;2023-09-18T10:59:45;22.60;99.90
74901;DHT22;63461;51.416;6.758;2023-09-18T11:02:15;22.50;99.90
74901;DHT22;63461;51.416;6.758;2023-09-18T11:04:44;22.40;99.90
74901;DHT22;63461;51.416;6.758;2023-09-18T11:07:21;22.40;99.90
74901;DHT22;63461;51.416;6.758;2023-09-18T11:09:48;22.40;99.90
74901;DHT22;63461;51.416;6.758;2023-09-18T11:12:16;22.50;99.90
74901;DHT22;63461;51.416;6.758;2023-09-18T11:14:55;22.60;99.90
74901;DHT22;63461;51.416;6.758;2023-09-18T11:17:38;22.70;99.90
74901;DHT22;63461;51.416;6.758;2023-09-18T11:23:19;22.90;99.90
74901;DHT22;63461;51.416;6.758;2023-09-18T11:25:56;22.90;99.90
74901;DHT22;63461;51.416;6.758;2023-09-18T11:28:24;22.90;99.90
74901;DHT22;63461;51.416;6.758;2023-09-18T11:30:57;23.10;99.90
74901;DHT22;63461;51.416;6.758;2023-09-18T11:33:41;23.20;99.90
74901;DHT22;63461;51.416;6.758;2023-09-18T11:36:12;23.10;99.90
74901;DHT22;63461;51.416;6.758;2023-09-18T11:38:57;23.10;99.90
74901;DHT22;63461;51.416;6.758;2023-09-18T11:41:27;23.20;99.90
74901;DHT22;63461;51.416;6.758;2023-09-18T11:46:38;23.20;99.90
74901;DHT22;63461;51.416;6.758;2023-09-18T11:49:08;23.10;99.90
74901;DHT22;63461;51.416;6.758;2023-09-18T11:51:36;23.20;99.90
74901;DHT22;63461;51.416;6.758;2023-09-18T11:54:03;23.30;99.90
74901;DHT22;63461;51.416;6.758;2023-09-18T11:56:32;23.30;99.90
74901;DHT22;63461;51.416;6.758;2023-09-18T11:58:58;23.30;99.90
74901;DHT22;63461;51.416;6.758;2023-09-18T12:01:25;23.40;99.90
74901;DHT22;63461;51.416;6.758;2023-09-18T12:03:54;23.50;99.90
74901;DHT22;63461;51.416;6.758;2023-09-18T12:06:21;23.30;99.90
74901;DHT22;63461;51.416;6.758;2023-09-18T12:08:47;23.30;99.90
74901;DHT22;63461;51.416;6.758;2023-09-18T12:11:14;23.40;99.90
74901;DHT22;63461;51.416;6.758;2023-09-18T12:13:46;23.50;99.90
74901;DHT22;63461;51.416;6.758;2023-09-18T12:16:14;23.50;99.90
74901;DHT22;63461;51.416;6.758;2023-09-18T12:18:48;23.40;99.90
74901;DHT22;63461;51.416;6.758;2023-09-18T12:21:15;23.40;99.90
74901;DHT22;63461;51.416;6.758;2023-09-18T12:23:44;23.40;99.90
74901;DHT22;63461;51.416;6.758;2023-09-18T12:26:15;23.30;99.90
74901;DHT22;63461;51.416;6.758;2023-09-18T12:28:44;23.30;99.90
74901;DHT22;63461;51.416;6.758;2023-09-18T12:31:12;23.30;99.90
74901;DHT22;63461;51.416;6.758;2023-09-18T12:33:39;23.40;99.90
74901;DHT22;63461;51.416;6.758;2023-09-18T12:36:07;23.50;99.90
74901;DHT22;63461;51.416;6.758;2023-09-18T12:38:34;23.50;99.90
74901;DHT22;63461;51.416;6.758;2023-09-18T12:41:01;23.40;99.90
74901;DHT22;63461;51.416;6.758;2023-09-18T12:43:39;23.50;99.90
74901;DHT22;63461;51.416;6.758;2023-09-18T12:46:06;23.30;99.90
74901;DHT22;63461;51.416;6.758;2023-09-18T12:48:36;23.30;99.90
74901;DHT22;63461;51.416;6.758;2023-09-18T12:51:03;23.40;99.90
74901;DHT22;63461;51.416;6.758;2023-09-18T12:53:29;23.40;99.90
74901;DHT22;63461;51.416;6.758;2023-09-18T12:56:14;23.40;99.90
74901;DHT22;63461;51.416;6.758;2023-09-18T12:58:41;23.40;99.90
74901;DHT22;63461;51.416;6.758;2023-09-18T13:01:08;23.40;99.90
74901;DHT22;63461;51.416;6.758;2023-09-18T13:03:42;23.50;99.90
74901;DHT22;63461;51.416;6.758;2023-09-18T13:06:19;23.50;99.90
74901;DHT22;63461;51.416;6.758;2023-09-18T13:08:46;23.50;99.90
74901;DHT22;63461;51.416;6.758;2023-09-18T13:11:13;23.50;99.90
74901;DHT22;63461;51.416;6.758;2023-09-18T13:13:42;23.50;99.90
74901;DHT22;63461;51.416;6.758;2023-09-18T13:16:10;23.60;99.90
74901;DHT22;63461;51.416;6.758;2023-09-18T13:18:36;23.70;99.90
74901;DHT22;63461;51.416;6.758;2023-09-18T13:21:12;23.80;99.90
74901;DHT22;63461;51.416;6.758;2023-09-18T13:23:40;23.80;99.90
74901;DHT22;63461;51.416;6.758;2023-09-18T13:26:07;23.90;99.90
74901;DHT22;63461;51.416;6.758;2023-09-18T13:28:38;24.00;99.90
74901;DHT22;63461;51.416;6.758;2023-09-18T13:31:06;23.90;99.90
74901;DHT22;63461;51.416;6.758;2023-09-18T13:33:33;23.90;99.90
74901;DHT22;63461;51.416;6.758;2023-09-18T13:36:03;23.80;99.90
74901;DHT22;63461;51.416;6.758;2023-09-18T13:38:29;23.90;99.90
74901;DHT22;63461;51.416;6.758;2023-09-18T13:40:55;24.00;99.90
74901;DHT22;63461;51.416;6.758;2023-09-18T13:43:21;23.90;99.90
74901;DHT22;63461;51.416;6.758;2023-09-18T13:45:50;23.90;99.90
74901;DHT22;63461;51.416;6.758;2023-09-18T13:48:17;23.90;99.90
74901;DHT22;63461;51.416;6.758;2023-09-18T13:50:44;23.90;99.90
74901;DHT22;63461;51.416;6.758;2023-09-18T13:53:11;23.90;99.90
74901;DHT22;63461;51.416;6.758;2023-09-18T13:55:36;23.80;99.90
74901;DHT22;63461;51.416;6.758;2023-09-18T13:58:03;23.80;99.90
74901;DHT22;63461;51.416;6.758;2023-09-18T14:00:29;23.80;99.90
74901;DHT22;63461;51.416;6.758;2023-09-18T14:02:55;23.70;99.90
74901;DHT22;63461;51.416;6.758;2023-09-18T14:05:20;23.70;99.90
74901;DHT22;63461;51.416;6.758;2023-09-18T14:07:46;23.70;99.90
74901;DHT22;63461;51.416;6.758;2023-09-18T14:10:13;23.70;99.90
74901;DHT22;63461;51.416;6.758;2023-09-18T14:12:42;23.60;99.90
74901;DHT22;63461;51.416;6.758;2023-09-18T14:15:09;23.60;99.90
74901;DHT22;63461;51.416;6.758;2023-09-18T14:17:36;23.70;99.90
74901;DHT22;63461;51.416;6.758;2023-09-18T14:20:03;23.70;99.90
74901;DHT22;63461;51.416;6.758;2023-09-18T14:22:33;23.70;99.90
74901;DHT22;63461;51.416;6.758;2023-09-18T14:24:58;23.60;99.90
74901;DHT22;63461;51.416;6.758;2023-09-18T14:27:24;23.70;99.90
74901;DHT22;63461;51.416;6.758;2023-09-18T14:29:53;23.60;99.90
74901;DHT22;63461;51.416;6.758;2023-09-18T14:32:19;23.60;99.90
74901;DHT22;63461;51.416;6.758;2023-09-18T14:34:45;23.60;99.90
74901;DHT22;63461;51.416;6.758;2023-09-18T14:37:11;23.50;99.90
74901;DHT22;63461;51.416;6.758;2023-09-18T14:39:37;23.40;99.90
74901;DHT22;63461;51.416;6.758;2023-09-18T14:42:03;23.40;99.90
74901;DHT22;63461;51.416;6.758;2023-09-18T14:44:28;23.30;99.90
74901;DHT22;63461;51.416;6.758;2023-09-18T14:46:56;23.30;99.90
74901;DHT22;63461;51.416;6.758;2023-09-18T14:49:22;23.30;99.90
74901;DHT22;63461;51.416;6.758;2023-09-18T14:51:51;23.30;99.90
74901;DHT22;63461;51.416;6.758;2023-09-18T14:54:18;23.40;99.90
74901;DHT22;63461;51.416;6.758;2023-09-18T14:56:44;23.40;99.90
74901;DHT22;63461;51.416;6.758;2023-09-18T14:59:11;23.40;99.90
74901;DHT22;63461;51.416;6.758;2023-09-18T15:01:37;23.50;99.90
74901;DHT22;63461;51.416;6.758;2023-09-18T15:04:04;23.40;99.90
74901;DHT22;63461;51.416;6.758;2023-09-18T15:06:30;23.40;99.90
74901;DHT22;63461;51.416;6.758;2023-09-18T15:08:56;23.50;99.90
74901;DHT22;63461;51.416;6.758;2023-09-18T15:11:22;23.50;99.90
74901;DHT22;63461;51.416;6.758;2023-09-18T15:13:49;23.50;99.90
74901;DHT22;63461;51.416;6.758;2023-09-18T15:16:15;23.50;99.90
74901;DHT22;63461;51.416;6.758;2023-09-18T15:18:41;23.60;99.90
74901;DHT22;63461;51.416;6.758;2023-09-18T15:21:09;23.60;99.90
74901;DHT22;63461;51.416;6.758;2023-09-18T15:23:36;23.50;99.90
74901;DHT22;63461;51.416;6.758;2023-09-18T15:26:02;23.50;99.90
74901;DHT22;63461;51.416;6.758;2023-09-18T15:28:28;23.60;99.90
74901;DHT22;63461;51.416;6.758;2023-09-18T15:30:57;23.50;99.90
74901;DHT22;63461;51.416;6.758;2023-09-18T15:33:26;23.50;99.90
74901;DHT22;63461;51.416;6.758;2023-09-18T15:35:52;23.50;99.90
74901;DHT22;63461;51.416;6.758;2023-09-18T15:38:21;23.50;99.90
74901;DHT22;63461;51.416;6.758;2023-09-18T15:40:47;23.40;99.90
74901;DHT22;63461;51.416;6.758;2023-09-18T15:43:13;23.40;99.90